sensor_id;sensor_type;location;lat;lon;timestamp;pressure;altitude;pressure_sealevel;temperature;humidity
40285;BME280;25997;50.214;19.354;2023-04-24T00:01:24;96963.66;;;13.40;32.21
40285;BME280;25997;50.214;19.354;2023-04-24T00:04:27;96966.25;;;13.43;32.00
40285;BME280;25997;50.214;19.354;2023-04-24T00:07:31;96954.84;;;13.48;31.94
40285;BME280;25997;50.214;19.354;2023-04-24T00:10:34;96957.44;;;13.54;31.77
40285;BME280;25997;50.214;19.354;2023-04-24T00:13:37;96953.91;;;13.61;31.64
40285;BME280;25997;50.214;19.354;2023-04-24T00:16:39;96954.78;;;13.67;31.43
40285;BME280;25997;50.214;19.354;2023-04-24T00:19:42;96951.22;;;13.69;31.46
40285;BME280;25997;50.214;19.354;2023-04-24T00:22:46;96950.34;;;13.75;31.50
40285;BME280;25997;50.214;19.354;2023-04-24T00:25:48;96946.81;;;13.74;31.43
40285;BME280;25997;50.214;19.354;2023-04-24T00:28:51;96943.28;;;13.78;31.23
40285;BME280;25997;50.214;19.354;2023-04-24T00:31:54;96930.94;;;13.80;31.20
40285;BME280;25997;50.214;19.354;2023-04-24T00:34:57;96932.69;;;13.83;31.13
40285;BME280;25997;50.214;19.354;2023-04-24T00:38:01;96930.94;;;13.86;31.15
40285;BME280;25997;50.214;19.354;2023-04-24T00:41:03;96927.41;;;13.89;31.05
40285;BME280;25997;50.214;19.354;2023-04-24T00:44:06;96932.66;;;13.92;31.05
40285;BME280;25997;50.214;19.354;2023-04-24T00:47:08;96918.56;;;13.94;31.04
40285;BME280;25997;50.214;19.354;2023-04-24T00:50:11;96920.34;;;13.89;31.15
40285;BME280;25997;50.214;19.354;2023-04-24T00:53:16;96915.13;;;13.82;31.20
40285;BME280;25997;50.214;19.354;2023-04-24T00:56:18;96906.38;;;13.72;31.34
40285;BME280;25997;50.214;19.354;2023-04-24T00:59:21;96913.47;;;13.59;31.44
40285;BME280;25997;50.214;19.354;2023-04-24T01:02:23;96904.72;;;13.45;31.51
40285;BME280;25997;50.214;19.354;2023-04-24T01:05:27;96912.69;;;13.35;31.68
40285;BME280;25997;50.214;19.354;2023-04-24T01:08:31;96908.28;;;13.29;31.81
40285;BME280;25997;50.214;19.354;2023-04-24T01:11:33;96894.25;;;13.26;31.76
40285;BME280;25997;50.214;19.354;2023-04-24T01:14:36;96902.19;;;13.24;31.83
40285;BME280;25997;50.214;19.354;2023-04-24T01:17:39;96903.06;;;13.22;31.77
40285;BME280;25997;50.214;19.354;2023-04-24T01:20:42;96896.94;;;13.15;32.01
40285;BME280;25997;50.214;19.354;2023-04-24T01:23:47;96893.41;;;13.07;31.97
40285;BME280;25997;50.214;19.354;2023-04-24T01:26:52;96884.63;;;12.99;32.13
40285;BME280;25997;50.214;19.354;2023-04-24T01:29:55;96890.78;;;12.89;32.24
40285;BME280;25997;50.214;19.354;2023-04-24T01:32:58;96878.53;;;12.82;32.21
40285;BME280;25997;50.214;19.354;2023-04-24T01:36:01;96881.16;;;12.77;32.27
40285;BME280;25997;50.214;19.354;2023-04-24T01:39:06;96877.66;;;12.75;32.22
40285;BME280;25997;50.214;19.354;2023-04-24T01:42:08;96875.91;;;12.73;32.29
40285;BME280;25997;50.214;19.354;2023-04-24T01:45:11;96871.50;;;12.69;32.32
40285;BME280;25997;50.214;19.354;2023-04-24T01:48:14;96871.50;;;12.67;32.11
40285;BME280;25997;50.214;19.354;2023-04-24T01:51:18;96867.09;;;12.69;32.19
40285;BME280;25997;50.214;19.354;2023-04-24T01:54:22;96867.09;;;12.74;32.10
40285;BME280;25997;50.214;19.354;2023-04-24T01:57:24;96860.06;;;12.80;31.92
40285;BME280;25997;50.214;19.354;2023-04-24T02:00:27;96856.53;;;12.87;31.77
40285;BME280;25997;50.214;19.354;2023-04-24T02:03:29;96860.03;;;12.91;31.62
40285;BME280;25997;50.214;19.354;2023-04-24T02:06:33;96861.81;;;12.92;31.73
40285;BME280;25997;50.214;19.354;2023-04-24T02:09:37;96853.91;;;12.90;31.74
40285;BME280;25997;50.214;19.354;2023-04-24T02:12:40;96854.78;;;12.88;31.82
40285;BME280;25997;50.214;19.354;2023-04-24T02:15:42;96855.66;;;12.87;31.77
40285;BME280;25997;50.214;19.354;2023-04-24T02:18:45;96856.56;;;12.86;31.66
40285;BME280;25997;50.214;19.354;2023-04-24T02:21:47;96849.53;;;12.83;31.75
40285;BME280;25997;50.214;19.354;2023-04-24T02:24:51;96840.75;;;12.80;31.70
40285;BME280;25997;50.214;19.354;2023-04-24T02:27:53;96839.88;;;12.73;31.78
40285;BME280;25997;50.214;19.354;2023-04-24T02:30:56;96832.88;;;12.65;31.93
40285;BME280;25997;50.214;19.354;2023-04-24T02:33:59;96838.19;;;12.62;31.82
40285;BME280;25997;50.214;19.354;2023-04-24T02:37:01;96826.78;;;12.55;32.01
40285;BME280;25997;50.214;19.354;2023-04-24T02:40:07;96820.63;;;12.50;31.95
40285;BME280;25997;50.214;19.354;2023-04-24T02:43:10;96833.78;;;12.47;32.02
40285;BME280;25997;50.214;19.354;2023-04-24T02:46:12;96820.63;;;12.43;31.99
40285;BME280;25997;50.214;19.354;2023-04-24T02:49:14;96825.03;;;12.38;32.02
40285;BME280;25997;50.214;19.354;2023-04-24T02:52:17;96820.66;;;12.35;32.03
40285;BME280;25997;50.214;19.354;2023-04-24T02:55:21;96820.66;;;12.35;31.89
40285;BME280;25997;50.214;19.354;2023-04-24T02:58:23;96823.28;;;12.35;31.97
40285;BME280;25997;50.214;19.354;2023-04-24T03:01:26;96822.41;;;12.35;32.00
40285;BME280;25997;50.214;19.354;2023-04-24T03:04:28;96824.13;;;12.36;31.91
40285;BME280;25997;50.214;19.354;2023-04-24T03:07:31;96820.63;;;12.37;31.95
40285;BME280;25997;50.214;19.354;2023-04-24T03:10:35;96819.78;;;12.35;32.09
40285;BME280;25997;50.214;19.354;2023-04-24T03:13:37;96831.16;;;12.37;31.93
40285;BME280;25997;50.214;19.354;2023-04-24T03:16:40;96824.16;;;12.34;32.04
40285;BME280;25997;50.214;19.354;2023-04-24T03:19:42;96819.78;;;12.35;31.98
40285;BME280;25997;50.214;19.354;2023-04-24T03:22:47;96818.03;;;12.35;32.01
40285;BME280;25997;50.214;19.354;2023-04-24T03:25:51;96825.91;;;12.31;32.01
40285;BME280;25997;50.214;19.354;2023-04-24T03:28:54;96817.13;;;12.27;32.09
40285;BME280;25997;50.214;19.354;2023-04-24T03:31:57;96815.38;;;12.28;32.14
40285;BME280;25997;50.214;19.354;2023-04-24T03:35:00;96814.50;;;12.27;32.20
40285;BME280;25997;50.214;19.354;2023-04-24T03:38:03;96813.63;;;12.28;32.01
40285;BME280;25997;50.214;19.354;2023-04-24T03:41:31;96816.25;;;12.31;32.11
40285;BME280;25997;50.214;19.354;2023-04-24T03:44:39;96811.88;;;12.35;32.16
40285;BME280;25997;50.214;19.354;2023-04-24T03:47:42;96824.13;;;12.40;31.99
40285;BME280;25997;50.214;19.354;2023-04-24T03:50:44;96818.00;;;12.46;32.12
40285;BME280;25997;50.214;19.354;2023-04-24T03:53:47;96820.59;;;12.53;32.06
40285;BME280;25997;50.214;19.354;2023-04-24T03:56:55;96824.97;;;12.68;32.06
40285;BME280;25997;50.214;19.354;2023-04-24T03:59:59;96818.81;;;12.78;31.90
40285;BME280;25997;50.214;19.354;2023-04-24T04:03:04;96829.34;;;12.88;31.96
40285;BME280;25997;50.214;19.354;2023-04-24T04:06:07;96819.66;;;13.00;31.84
40285;BME280;25997;50.214;19.354;2023-04-24T04:09:12;96824.88;;;13.12;31.73
40285;BME280;25997;50.214;19.354;2023-04-24T04:12:16;96824.84;;;13.25;31.72
40285;BME280;25997;50.214;19.354;2023-04-24T04:15:19;96826.56;;;13.37;31.75
40285;BME280;25997;50.214;19.354;2023-04-24T04:18:24;96825.59;;;13.47;31.75
40285;BME280;25997;50.214;19.354;2023-04-24T04:21:26;96816.81;;;13.52;31.88
40285;BME280;25997;50.214;19.354;2023-04-24T04:24:42;96818.53;;;13.56;31.92
40285;BME280;25997;50.214;19.354;2023-04-24T04:27:47;96822.00;;;13.60;32.08
40285;BME280;25997;50.214;19.354;2023-04-24T04:30:50;96821.16;;;13.61;32.06
40285;BME280;25997;50.214;19.354;2023-04-24T04:33:55;96815.88;;;13.64;32.10
40285;BME280;25997;50.214;19.354;2023-04-24T04:36:57;96812.34;;;13.63;32.49
40285;BME280;25997;50.214;19.354;2023-04-24T04:40:21;96822.91;;;13.56;32.37
40285;BME280;25997;50.214;19.354;2023-04-24T04:43:32;96815.91;;;13.55;32.67
40285;BME280;25997;50.214;19.354;2023-04-24T04:46:35;96818.63;;;13.38;33.66
40285;BME280;25997;50.214;19.354;2023-04-24T04:49:59;96816.97;;;13.16;34.33
40285;BME280;25997;50.214;19.354;2023-04-24T04:53:02;96810.03;;;12.82;34.66
40285;BME280;25997;50.214;19.354;2023-04-24T04:56:09;96819.75;;;12.62;34.89
40285;BME280;25997;50.214;19.354;2023-04-24T04:59:17;96821.50;;;12.27;34.92
40285;BME280;25997;50.214;19.354;2023-04-24T05:02:21;96822.34;;;11.94;35.13
40285;BME280;25997;50.214;19.354;2023-04-24T05:05:24;96826.72;;;11.89;35.10
40285;BME280;25997;50.214;19.354;2023-04-24T05:08:26;96825.88;;;11.88;35.01
40285;BME280;25997;50.214;19.354;2023-04-24T05:11:30;96824.97;;;11.98;34.94
40285;BME280;25997;50.214;19.354;2023-04-24T05:14:36;96823.25;;;12.06;35.27
40285;BME280;25997;50.214;19.354;2023-04-24T05:17:39;96822.38;;;12.13;34.99
40285;BME280;25997;50.214;19.354;2023-04-24T05:20:42;96827.66;;;12.26;35.06
40285;BME280;25997;50.214;19.354;2023-04-24T05:23:45;96832.94;;;12.38;34.95
40285;BME280;25997;50.214;19.354;2023-04-24T05:26:53;96827.66;;;12.50;34.74
40285;BME280;25997;50.214;19.354;2023-04-24T05:30:04;96820.59;;;12.65;35.17
40285;BME280;25997;50.214;19.354;2023-04-24T05:33:07;96820.53;;;12.85;35.42
40285;BME280;25997;50.214;19.354;2023-04-24T05:36:10;96818.75;;;13.02;36.13
40285;BME280;25997;50.214;19.354;2023-04-24T05:39:13;96818.66;;;13.29;35.07
40285;BME280;25997;50.214;19.354;2023-04-24T05:42:16;96819.41;;;13.57;35.02
40285;BME280;25997;50.214;19.354;2023-04-24T05:45:19;96821.00;;;13.85;34.11
40285;BME280;25997;50.214;19.354;2023-04-24T05:48:22;96818.19;;;14.09;33.78
40285;BME280;25997;50.214;19.354;2023-04-24T05:51:24;96817.16;;;14.33;33.49
40285;BME280;25997;50.214;19.354;2023-04-24T05:54:27;96818.72;;;14.55;33.27
40285;BME280;25997;50.214;19.354;2023-04-24T05:57:31;96816.72;;;14.77;33.05
40285;BME280;25997;50.214;19.354;2023-04-24T06:00:38;96814.72;;;15.00;33.23
40285;BME280;25997;50.214;19.354;2023-04-24T06:03:43;96811.94;;;15.15;32.93
40285;BME280;25997;50.214;19.354;2023-04-24T06:06:46;96817.03;;;15.30;32.59
40285;BME280;25997;50.214;19.354;2023-04-24T06:09:52;96803.59;;;15.45;32.50
40285;BME280;25997;50.214;19.354;2023-04-24T06:12:56;96806.06;;;15.59;32.51
40285;BME280;25997;50.214;19.354;2023-04-24T06:16:05;96806.72;;;15.76;32.36
40285;BME280;25997;50.214;19.354;2023-04-24T06:19:11;96803.91;;;15.88;32.30
40285;BME280;25997;50.214;19.354;2023-04-24T06:22:13;96797.63;;;15.95;32.43
40285;BME280;25997;50.214;19.354;2023-04-24T06:25:16;96796.72;;;15.98;31.69
40285;BME280;25997;50.214;19.354;2023-04-24T06:28:18;96803.72;;;16.00;31.61
40285;BME280;25997;50.214;19.354;2023-04-24T06:31:22;96798.53;;;15.94;31.12
40285;BME280;25997;50.214;19.354;2023-04-24T06:34:25;96799.25;;;16.02;31.27
40285;BME280;25997;50.214;19.354;2023-04-24T06:37:28;96790.31;;;16.09;30.92
40285;BME280;25997;50.214;19.354;2023-04-24T06:40:31;96790.16;;;16.21;30.88
40285;BME280;25997;50.214;19.354;2023-04-24T06:43:34;96802.25;;;16.36;31.22
40285;BME280;25997;50.214;19.354;2023-04-24T06:46:38;96786.16;;;16.49;30.89
40285;BME280;25997;50.214;19.354;2023-04-24T06:49:42;96789.56;;;16.56;30.95
40285;BME280;25997;50.214;19.354;2023-04-24T06:52:44;96790.31;;;16.64;30.33
40285;BME280;25997;50.214;19.354;2023-04-24T06:55:47;96795.41;;;16.75;30.32
40285;BME280;25997;50.214;19.354;2023-04-24T06:58:50;96789.06;;;16.83;30.50
40285;BME280;25997;50.214;19.354;2023-04-24T07:01:54;96781.81;;;16.91;29.87
40285;BME280;25997;50.214;19.354;2023-04-24T07:04:57;96781.47;;;17.11;29.76
40285;BME280;25997;50.214;19.354;2023-04-24T07:08:00;96775.72;;;17.32;29.93
40285;BME280;25997;50.214;19.354;2023-04-24T07:11:02;96777.56;;;17.30;28.89
40285;BME280;25997;50.214;19.354;2023-04-24T07:14:05;96768.72;;;17.30;28.93
40285;BME280;25997;50.214;19.354;2023-04-24T07:17:09;96768.47;;;17.42;28.70
40285;BME280;25997;50.214;19.354;2023-04-24T07:20:13;96772.97;;;17.37;28.70
40285;BME280;25997;50.214;19.354;2023-04-24T07:23:16;96770.63;;;17.64;29.04
40285;BME280;25997;50.214;19.354;2023-04-24T07:26:19;96764.97;;;17.78;28.44
40285;BME280;25997;50.214;19.354;2023-04-24T07:29:22;96767.28;;;17.95;28.20
40285;BME280;25997;50.214;19.354;2023-04-24T07:32:26;96764.19;;;18.13;28.18
40285;BME280;25997;50.214;19.354;2023-04-24T07:35:28;96774.53;;;18.23;27.96
40285;BME280;25997;50.214;19.354;2023-04-24T07:38:31;96773.47;;;18.30;28.23
40285;BME280;25997;50.214;19.354;2023-04-24T07:41:33;96760.72;;;18.44;27.82
40285;BME280;25997;50.214;19.354;2023-04-24T07:44:35;96766.13;;;18.41;26.92
40285;BME280;25997;50.214;19.354;2023-04-24T07:47:40;96751.84;;;18.10;27.08
40285;BME280;25997;50.214;19.354;2023-04-24T07:50:44;96757.72;;;18.23;27.38
40285;BME280;25997;50.214;19.354;2023-04-24T07:53:47;96752.72;;;18.46;27.46
40285;BME280;25997;50.214;19.354;2023-04-24T07:56:49;96760.47;;;18.20;26.68
40285;BME280;25997;50.214;19.354;2023-04-24T07:59:52;96752.94;;;18.37;26.78
40285;BME280;25997;50.214;19.354;2023-04-24T08:02:56;96763.50;;;18.40;26.61
40285;BME280;25997;50.214;19.354;2023-04-24T08:05:58;96743.69;;;18.51;26.58
40285;BME280;25997;50.214;19.354;2023-04-24T08:09:01;96748.75;;;18.60;26.22
40285;BME280;25997;50.214;19.354;2023-04-24T08:12:03;96740.25;;;18.48;25.55
40285;BME280;25997;50.214;19.354;2023-04-24T08:15:07;96746.63;;;18.41;26.31
40285;BME280;25997;50.214;19.354;2023-04-24T08:18:11;96747.59;;;18.72;25.82
40285;BME280;25997;50.214;19.354;2023-04-24T08:21:14;96735.56;;;18.90;25.72
40285;BME280;25997;50.214;19.354;2023-04-24T08:24:18;96743.50;;;18.93;26.24
40285;BME280;25997;50.214;19.354;2023-04-24T08:27:20;96736.09;;;19.33;25.52
40285;BME280;25997;50.214;19.354;2023-04-24T08:30:23;96734.03;;;19.72;25.97
40285;BME280;25997;50.214;19.354;2023-04-24T08:33:26;96737.53;;;20.01;25.74
40285;BME280;25997;50.214;19.354;2023-04-24T08:36:35;96736.69;;;20.27;25.90
40285;BME280;25997;50.214;19.354;2023-04-24T08:39:37;96730.34;;;20.31;25.53
40285;BME280;25997;50.214;19.354;2023-04-24T08:42:41;96725.66;;;20.64;25.59
40285;BME280;25997;50.214;19.354;2023-04-24T08:45:44;96731.16;;;20.59;25.03
40285;BME280;25997;50.214;19.354;2023-04-24T08:48:49;96726.69;;;20.60;25.00
40285;BME280;25997;50.214;19.354;2023-04-24T08:51:52;96725.78;;;20.86;25.47
40285;BME280;25997;50.214;19.354;2023-04-24T08:54:55;96728.09;;;21.19;25.20
40285;BME280;25997;50.214;19.354;2023-04-24T08:57:59;96730.00;;;21.40;25.05
40285;BME280;25997;50.214;19.354;2023-04-24T09:01:02;96734.41;;;21.41;24.51
40285;BME280;25997;50.214;19.354;2023-04-24T09:04:07;96727.22;;;21.43;24.63
40285;BME280;25997;50.214;19.354;2023-04-24T09:07:12;96726.63;;;21.59;24.12
40285;BME280;25997;50.214;19.354;2023-04-24T09:10:15;96727.91;;;21.48;24.47
40285;BME280;25997;50.214;19.354;2023-04-24T09:13:18;96722.22;;;21.34;23.73
40285;BME280;25997;50.214;19.354;2023-04-24T09:16:22;96722.28;;;21.08;24.37
40285;BME280;25997;50.214;19.354;2023-04-24T09:19:26;96718.56;;;21.12;24.13
40285;BME280;25997;50.214;19.354;2023-04-24T09:22:29;96716.88;;;21.34;24.77
40285;BME280;25997;50.214;19.354;2023-04-24T09:25:37;96709.31;;;21.45;23.98
40285;BME280;25997;50.214;19.354;2023-04-24T09:28:42;96712.25;;;21.39;23.65
40285;BME280;25997;50.214;19.354;2023-04-24T09:31:45;96704.91;;;21.44;24.12
40285;BME280;25997;50.214;19.354;2023-04-24T09:34:49;96711.41;;;21.61;23.79
40285;BME280;25997;50.214;19.354;2023-04-24T09:37:52;96710.38;;;21.86;23.42
40285;BME280;25997;50.214;19.354;2023-04-24T09:40:54;96709.22;;;21.48;23.43
40285;BME280;25997;50.214;19.354;2023-04-24T09:44:10;96709.41;;;21.19;23.40
40285;BME280;25997;50.214;19.354;2023-04-24T09:47:13;96698.06;;;21.37;24.14
40285;BME280;25997;50.214;19.354;2023-04-24T09:50:17;96701.56;;;21.39;23.71
40285;BME280;25997;50.214;19.354;2023-04-24T09:53:24;96697.47;;;21.53;23.98
40285;BME280;25997;50.214;19.354;2023-04-24T09:56:26;96693.13;;;21.72;24.01
40285;BME280;25997;50.214;19.354;2023-04-24T09:59:30;96702.22;;;21.89;23.87
40285;BME280;25997;50.214;19.354;2023-04-24T10:02:32;96691.88;;;22.45;24.08
40285;BME280;25997;50.214;19.354;2023-04-24T10:05:37;96686.91;;;23.17;23.65
40285;BME280;25997;50.214;19.354;2023-04-24T10:08:40;96688.22;;;23.08;22.71
40285;BME280;25997;50.214;19.354;2023-04-24T10:11:44;96691.84;;;22.87;22.26
40285;BME280;25997;50.214;19.354;2023-04-24T10:14:47;96695.34;;;22.47;22.46
40285;BME280;25997;50.214;19.354;2023-04-24T10:17:50;96687.13;;;22.52;22.66
40285;BME280;25997;50.214;19.354;2023-04-24T10:20:56;96689.16;;;22.87;23.16
40285;BME280;25997;50.214;19.354;2023-04-24T10:23:59;96677.41;;;23.10;22.51
40285;BME280;25997;50.214;19.354;2023-04-24T10:27:05;96684.13;;;23.20;22.18
40285;BME280;25997;50.214;19.354;2023-04-24T10:30:09;96675.84;;;23.44;21.82
40285;BME280;25997;50.214;19.354;2023-04-24T10:33:13;96671.25;;;23.84;21.96
40285;BME280;25997;50.214;19.354;2023-04-24T10:36:18;96676.34;;;24.43;22.53
40285;BME280;25997;50.214;19.354;2023-04-24T10:39:24;96678.56;;;24.86;22.26
40285;BME280;25997;50.214;19.354;2023-04-24T10:42:27;96669.38;;;24.90;21.65
40285;BME280;25997;50.214;19.354;2023-04-24T10:45:29;96667.34;;;24.61;21.51
40285;BME280;25997;50.214;19.354;2023-04-24T10:48:32;96670.75;;;24.11;21.36
40285;BME280;25997;50.214;19.354;2023-04-24T10:51:48;96653.72;;;23.77;20.41
40285;BME280;25997;50.214;19.354;2023-04-24T10:54:51;96650.19;;;23.57;21.71
40285;BME280;25997;50.214;19.354;2023-04-24T10:58:02;96652.94;;;23.37;20.17
40285;BME280;25997;50.214;19.354;2023-04-24T11:01:05;96649.81;;;23.46;21.31
40285;BME280;25997;50.214;19.354;2023-04-24T11:04:07;96654.41;;;23.44;21.72
40285;BME280;25997;50.214;19.354;2023-04-24T11:07:12;96646.50;;;23.41;22.27
40285;BME280;25997;50.214;19.354;2023-04-24T11:10:25;96652.91;;;22.80;21.22
40285;BME280;25997;50.214;19.354;2023-04-24T11:14:07;96640.63;;;22.95;21.87
40285;BME280;25997;50.214;19.354;2023-04-24T11:17:28;96643.72;;;22.85;22.18
40285;BME280;25997;50.214;19.354;2023-04-24T11:20:31;96654.88;;;22.35;22.90
40285;BME280;25997;50.214;19.354;2023-04-24T11:23:37;96660.69;;;21.81;23.86
40285;BME280;25997;50.214;19.354;2023-04-24T11:26:39;96663.81;;;21.48;24.72
40285;BME280;25997;50.214;19.354;2023-04-24T11:29:45;96668.38;;;20.75;25.33
40285;BME280;25997;50.214;19.354;2023-04-24T11:32:48;96665.22;;;20.63;25.83
40285;BME280;25997;50.214;19.354;2023-04-24T11:35:52;96678.16;;;20.24;26.15
40285;BME280;25997;50.214;19.354;2023-04-24T11:38:56;96666.47;;;20.00;26.50
40285;BME280;25997;50.214;19.354;2023-04-24T11:42:02;96672.03;;;20.21;27.05
40285;BME280;25997;50.214;19.354;2023-04-24T11:45:09;96667.69;;;20.18;26.61
40285;BME280;25997;50.214;19.354;2023-04-24T11:48:12;96663.28;;;20.17;26.93
40285;BME280;25997;50.214;19.354;2023-04-24T11:51:14;96671.31;;;20.16;27.06
40285;BME280;25997;50.214;19.354;2023-04-24T11:54:18;96670.63;;;20.11;27.62
40285;BME280;25997;50.214;19.354;2023-04-24T11:57:23;96661.28;;;19.97;27.39
40285;BME280;25997;50.214;19.354;2023-04-24T12:00:31;96651.53;;;19.70;27.38
40285;BME280;25997;50.214;19.354;2023-04-24T12:03:35;96661.59;;;19.61;27.34
40285;BME280;25997;50.214;19.354;2023-04-24T12:06:37;96646.50;;;19.03;27.85
40285;BME280;25997;50.214;19.354;2023-04-24T12:09:43;96655.13;;;18.82;28.29
40285;BME280;25997;50.214;19.354;2023-04-24T12:12:46;96661.78;;;18.66;29.37
40285;BME280;25997;50.214;19.354;2023-04-24T12:15:54;96656.25;;;18.41;30.50
40285;BME280;25997;50.214;19.354;2023-04-24T12:18:58;96674.69;;;18.15;30.28
40285;BME280;25997;50.214;19.354;2023-04-24T12:22:02;96684.72;;;17.65;31.49
40285;BME280;25997;50.214;19.354;2023-04-24T12:25:10;96657.16;;;17.34;32.61
40285;BME280;25997;50.214;19.354;2023-04-24T12:28:13;96658.72;;;17.79;31.72
40285;BME280;25997;50.214;19.354;2023-04-24T12:31:15;96659.97;;;18.02;31.71
40285;BME280;25997;50.214;19.354;2023-04-24T12:34:19;96664.13;;;18.12;31.54
40285;BME280;25997;50.214;19.354;2023-04-24T12:37:23;96660.50;;;18.14;31.96
40285;BME280;25997;50.214;19.354;2023-04-24T12:40:27;96660.50;;;17.79;32.30
40285;BME280;25997;50.214;19.354;2023-04-24T12:43:31;96653.03;;;17.59;32.05
40285;BME280;25997;50.214;19.354;2023-04-24T12:46:33;96679.75;;;17.52;32.41
40285;BME280;25997;50.214;19.354;2023-04-24T12:49:36;96677.69;;;17.26;33.21
40285;BME280;25997;50.214;19.354;2023-04-24T12:52:39;96680.38;;;17.63;32.14
40285;BME280;25997;50.214;19.354;2023-04-24T12:55:43;96669.53;;;17.72;32.17
40285;BME280;25997;50.214;19.354;2023-04-24T12:58:47;96661.34;;;17.81;32.35
40285;BME280;25997;50.214;19.354;2023-04-24T13:01:50;96680.22;;;17.69;32.74
40285;BME280;25997;50.214;19.354;2023-04-24T13:04:54;96671.16;;;17.41;33.21
40285;BME280;25997;50.214;19.354;2023-04-24T13:07:57;96666.16;;;17.29;33.02
40285;BME280;25997;50.214;19.354;2023-04-24T13:11:01;96662.78;;;17.20;33.77
40285;BME280;25997;50.214;19.354;2023-04-24T13:14:04;96653.50;;;17.00;34.20
40285;BME280;25997;50.214;19.354;2023-04-24T13:17:06;96659.34;;;17.14;34.08
40285;BME280;25997;50.214;19.354;2023-04-24T13:20:10;96664.69;;;17.52;33.88
40285;BME280;25997;50.214;19.354;2023-04-24T13:23:12;96663.34;;;16.93;34.91
40285;BME280;25997;50.214;19.354;2023-04-24T13:26:17;96661.00;;;16.80;35.21
40285;BME280;25997;50.214;19.354;2023-04-24T13:29:20;96652.69;;;16.55;35.86
40285;BME280;25997;50.214;19.354;2023-04-24T13:32:23;96659.78;;;16.52;35.65
40285;BME280;25997;50.214;19.354;2023-04-24T13:35:26;96655.38;;;16.52;36.15
40285;BME280;25997;50.214;19.354;2023-04-24T13:38:28;96648.50;;;16.42;36.42
40285;BME280;25997;50.214;19.354;2023-04-24T13:41:32;96640.44;;;16.01;36.76
40285;BME280;25997;50.214;19.354;2023-04-24T13:44:35;96678.91;;;15.69;37.62
40285;BME280;25997;50.214;19.354;2023-04-24T13:47:38;96653.22;;;15.77;37.70
40285;BME280;25997;50.214;19.354;2023-04-24T13:50:42;96658.72;;;15.61;37.85
40285;BME280;25997;50.214;19.354;2023-04-24T13:53:46;96643.06;;;15.47;38.42
40285;BME280;25997;50.214;19.354;2023-04-24T13:56:51;96646.31;;;15.67;37.60
40285;BME280;25997;50.214;19.354;2023-04-24T13:59:53;96637.22;;;15.29;38.26
40285;BME280;25997;50.214;19.354;2023-04-24T14:02:56;96654.13;;;15.17;38.71
40285;BME280;25997;50.214;19.354;2023-04-24T14:05:59;96646.22;;;15.14;38.61
40285;BME280;25997;50.214;19.354;2023-04-24T14:09:01;96651.03;;;14.86;39.40
40285;BME280;25997;50.214;19.354;2023-04-24T14:12:05;96656.03;;;15.08;38.72
40285;BME280;25997;50.214;19.354;2023-04-24T14:15:09;96652.19;;;15.27;37.94
40285;BME280;25997;50.214;19.354;2023-04-24T14:18:14;96650.69;;;15.09;39.03
40285;BME280;25997;50.214;19.354;2023-04-24T14:21:16;96662.03;;;15.19;38.95
40285;BME280;25997;50.214;19.354;2023-04-24T14:24:19;96662.56;;;15.40;38.32
40285;BME280;25997;50.214;19.354;2023-04-24T14:27:24;96659.13;;;15.37;38.71
40285;BME280;25997;50.214;19.354;2023-04-24T14:30:26;96668.72;;;15.44;38.02
40285;BME280;25997;50.214;19.354;2023-04-24T14:33:29;96669.34;;;15.59;38.36
40285;BME280;25997;50.214;19.354;2023-04-24T14:36:32;96658.88;;;15.52;38.27
40285;BME280;25997;50.214;19.354;2023-04-24T14:39:35;96661.75;;;15.37;39.01
40285;BME280;25997;50.214;19.354;2023-04-24T14:42:39;96654.28;;;15.07;40.02
40285;BME280;25997;50.214;19.354;2023-04-24T14:45:41;96649.84;;;15.09;39.18
40285;BME280;25997;50.214;19.354;2023-04-24T14:48:44;96657.00;;;15.02;39.38
40285;BME280;25997;50.214;19.354;2023-04-24T14:51:48;96649.81;;;15.10;38.90
40285;BME280;25997;50.214;19.354;2023-04-24T14:54:50;96659.63;;;15.00;39.61
40285;BME280;25997;50.214;19.354;2023-04-24T14:57:54;96651.75;;;14.99;40.09
40285;BME280;25997;50.214;19.354;2023-04-24T15:00:57;96655.13;;;15.07;39.89
40285;BME280;25997;50.214;19.354;2023-04-24T15:03:59;96653.41;;;15.04;40.80
40285;BME280;25997;50.214;19.354;2023-04-24T15:07:02;96655.72;;;15.29;39.25
40285;BME280;25997;50.214;19.354;2023-04-24T15:10:06;96655.59;;;15.36;38.92
40285;BME280;25997;50.214;19.354;2023-04-24T15:13:10;96653.13;;;15.26;39.94
40285;BME280;25997;50.214;19.354;2023-04-24T15:16:12;96652.38;;;15.18;40.15
40285;BME280;25997;50.214;19.354;2023-04-24T15:19:16;96651.59;;;15.10;38.97
40285;BME280;25997;50.214;19.354;2023-04-24T15:22:19;96652.19;;;15.27;38.61
40285;BME280;25997;50.214;19.354;2023-04-24T15:25:21;96647.25;;;15.05;39.03
40285;BME280;25997;50.214;19.354;2023-04-24T15:28:26;96654.47;;;14.91;39.13
40285;BME280;25997;50.214;19.354;2023-04-24T15:31:28;96648.28;;;14.94;38.77
40285;BME280;25997;50.214;19.354;2023-04-24T15:34:30;96656.09;;;15.03;38.64
40285;BME280;25997;50.214;19.354;2023-04-24T15:37:33;96663.19;;;14.98;38.81
40285;BME280;25997;50.214;19.354;2023-04-24T15:40:36;96660.59;;;14.93;39.10
40285;BME280;25997;50.214;19.354;2023-04-24T15:43:40;96653.59;;;14.92;39.08
40285;BME280;25997;50.214;19.354;2023-04-24T15:46:44;96654.06;;;15.20;38.68
40285;BME280;25997;50.214;19.354;2023-04-24T15:49:46;96658.84;;;14.95;39.27
40285;BME280;25997;50.214;19.354;2023-04-24T15:52:49;96653.38;;;15.08;39.19
40285;BME280;25997;50.214;19.354;2023-04-24T15:55:52;96659.78;;;14.90;39.89
40285;BME280;25997;50.214;19.354;2023-04-24T15:58:58;96657.78;;;15.07;39.28
40285;BME280;25997;50.214;19.354;2023-04-24T16:02:01;96656.84;;;15.13;39.54